Time;durP1;ratioP1;P1;durP2;ratioP2;P2;SDS_P1;SDS_P2;PMS_P1;PMS_P2;Temp;Humidity;BMP_temperature;BMP_pressure;BME280_temperature;BME280_humidity;BME280_pressure;Samples;Min_cycle;Max_cycle;Signal;HPM_P1;HPM_P2
2021/08/30 00:01:28;;;;;;;;;;;;;;;21.61;64.41;102295.34;7286188;19;153458;-49
2021/08/30 00:03:56;;;;;;;;;;;;;;;21.62;65.04;102291.38;7289574;19;151517;-50
2021/08/30 00:06:23;;;;;;;;;;;;;;;21.63;64.62;102290.25;7285019;19;153198;-50
2021/08/30 00:08:50;;;;;;;;;;;;;;;21.62;64.56;102287.75;7286005;19;152454;-50
2021/08/30 00:11:18;;;;;;;;;;;;;;;21.62;65.07;102291.38;7286377;19;152314;-51
2021/08/30 00:13:45;;;;;;;;;;;;;;;21.61;65.13;102292.53;7293827;19;153057;-50
2021/08/30 00:16:12;;;;;;;;;;;;;;;21.63;64.69;102286.59;7285333;19;151873;-50
2021/08/30 00:18:40;;;;;;;;;;;;;;;21.63;64.93;102292.22;7283598;19;153678;-50
2021/08/30 00:21:07;;;;;;;;;;;;;;;21.63;64.62;102286.59;7284927;19;152334;-50
2021/08/30 00:23:34;;;;;;;;;;;;;;;21.64;65.32;102285.47;7285475;19;151645;-50
2021/08/30 00:26:04;;;;;;;;;;;;;;;21.66;65.22;102291.69;7286160;19;151997;-51
2021/08/30 00:28:32;;;;;;;;;;;;;;;21.64;65.30;102289.13;7285677;19;153654;-50
2021/08/30 00:30:59;;;;;;;;;;;;;;;21.64;65.38;102293.91;7285070;19;151570;-50
2021/08/30 00:33:26;;;;;;;;;;;;;;;21.64;65.24;102294.75;7286609;19;153304;-50
2021/08/30 00:35:53;;;;;;;;;;;;;;;21.64;64.72;102291.94;7292904;19;152687;-50
2021/08/30 00:38:20;;;;;;;;;;;;;;;21.62;65.13;102297.00;7286130;19;153642;-50
2021/08/30 00:40:47;;;;;;;;;;;;;;;21.63;65.36;102295.88;7284687;19;153855;-50
2021/08/30 00:43:14;;;;;;;;;;;;;;;21.63;64.91;102290.25;7287763;19;152177;-50
2021/08/30 00:45:41;;;;;;;;;;;;;;;21.64;65.57;102294.75;7281147;19;151787;-50
2021/08/30 00:48:08;;;;;;;;;;;;;;;21.64;65.25;102291.09;7281879;19;154286;-50
2021/08/30 00:50:35;;;;;;;;;;;;;;;21.65;65.44;102290.81;7280207;19;151762;-51
2021/08/30 00:53:03;;;;;;;;;;;;;;;21.65;65.63;102296.47;7284854;19;152507;-50
2021/08/30 00:55:31;;;;;;;;;;;;;;;21.64;65.76;102289.13;7284911;19;153231;-50
2021/08/30 00:57:58;;;;;;;;;;;;;;;21.64;65.72;102296.72;7293711;19;151835;-50
2021/08/30 01:00:25;;;;;;;;;;;;;;;21.64;65.70;102294.75;7282753;19;154360;-51
2021/08/30 01:02:52;;;;;;;;;;;;;;;21.65;65.94;102293.63;7288256;19;151727;-50
2021/08/30 01:05:20;;;;;;;;;;;;;;;21.65;65.53;102290.81;7284998;19;152081;-50
2021/08/30 01:07:47;;;;;;;;;;;;;;;21.64;65.91;102293.91;7284748;19;153295;-50
2021/08/30 01:10:18;;;;;;;;;;;;;;;21.66;65.57;102302.94;7285354;19;152111;-50
2021/08/30 01:12:50;;;;;;;;;;;;;;;21.65;66.04;102299.25;7283878;19;152808;-51
2021/08/30 01:15:20;;;;;;;;;;;;;;;21.64;65.98;102299.53;7282916;19;153214;-50
2021/08/30 01:17:48;;;;;;;;;;;;;;;21.65;65.67;102295.59;7294798;19;151711;-50
2021/08/30 01:20:24;;;;;;;;;;;;;;;21.65;65.99;102302.06;7281752;19;152576;-50
2021/08/30 01:22:52;;;;;;;;;;;;;;;21.64;66.34;102300.38;7284085;19;151768;-50
2021/08/30 01:25:21;;;;;;;;;;;;;;;21.67;65.83;102304.59;7284202;19;152597;-50
2021/08/30 01:27:49;;;;;;;;;;;;;;;21.67;66.35;102307.41;7282515;19;153316;-51
2021/08/30 01:30:17;;;;;;;;;;;;;;;21.66;66.47;102302.94;7284032;19;152188;-51
2021/08/30 01:32:47;;;;;;;;;;;;;;;21.68;66.28;102304.31;7284081;19;153710;-50
2021/08/30 01:35:16;;;;;;;;;;;;;;;21.68;66.25;102297.84;7282934;19;152819;-50
2021/08/30 01:37:45;;;;;;;;;;;;;;;21.66;66.20;102306.59;7278324;19;153289;-50
2021/08/30 01:40:13;;;;;;;;;;;;;;;21.67;66.64;102305.44;7287690;19;153364;-50
2021/08/30 01:42:42;;;;;;;;;;;;;;;21.67;66.53;102298.97;7283291;19;151708;-51
2021/08/30 01:45:12;;;;;;;;;;;;;;;21.67;66.65;102298.97;7281221;19;152595;-50
2021/08/30 01:47:39;;;;;;;;;;;;;;;21.67;66.71;102302.63;7283835;19;152288;-50
2021/08/30 01:50:07;;;;;;;;;;;;;;;21.69;66.89;102297.56;7283833;19;151698;-51
2021/08/30 01:52:36;;;;;;;;;;;;;;;21.69;66.65;102297.56;7283599;19;152747;-51
2021/08/30 01:55:12;;;;;;;;;;;;;;;21.70;66.84;102302.06;7283842;19;153361;-51
2021/08/30 02:00:42;;;;;;;;;;;;;;;21.71;66.49;102300.13;7283123;19;152328;-50
2021/08/30 02:02:58;;;;;;;;;;;;;;;21.70;66.85;102304.88;7305782;19;153414;-51
2021/08/30 02:05:25;;;;;;;;;;;;;;;21.71;66.45;102300.13;7297262;19;153294;-50
2021/08/30 02:07:52;;;;;;;;;;;;;;;21.73;66.81;102306.28;7295823;19;153917;-50
2021/08/30 02:10:20;;;;;;;;;;;;;;;21.72;66.83;102304.59;7294932;19;152053;-51
2021/08/30 02:12:47;;;;;;;;;;;;;;;21.71;66.83;102303.75;7291734;19;152626;-51
2021/08/30 02:15:15;;;;;;;;;;;;;;;21.72;66.77;102304.59;7293730;19;153821;-50
2021/08/30 02:17:45;;;;;;;;;;;;;;;21.72;67.13;102305.44;7296820;19;151953;-50
2021/08/30 02:20:16;;;;;;;;;;;;;;;21.72;67.49;102305.44;7295931;19;152127;-51
2021/08/30 02:22:44;;;;;;;;;;;;;;;21.73;67.62;102300.66;7296098;19;153134;-50
2021/08/30 02:25:13;;;;;;;;;;;;;;;21.72;67.38;102304.59;7304358;19;151890;-50
2021/08/30 02:27:45;;;;;;;;;;;;;;;21.70;67.27;102296.44;7295679;19;153533;-51
2021/08/30 02:30:16;;;;;;;;;;;;;;;21.71;67.46;102294.47;7294192;19;152268;-50
2021/08/30 02:32:45;;;;;;;;;;;;;;;21.70;67.31;102295.59;7293176;19;151714;-50
2021/08/30 02:35:14;;;;;;;;;;;;;;;21.70;67.34;102296.44;7295724;19;153479;-51
2021/08/30 02:37:42;;;;;;;;;;;;;;;21.70;67.18;102289.97;7296621;19;152052;-50
2021/08/30 02:40:11;;;;;;;;;;;;;;;21.68;67.28;102290.25;7295638;19;152755;-50
2021/08/30 02:42:39;;;;;;;;;;;;;;;21.68;67.51;102284.63;7297533;19;153752;-50
2021/08/30 02:45:07;;;;;;;;;;;;;;;21.67;67.29;102285.75;7297712;19;151891;-51
2021/08/30 02:47:35;;;;;;;;;;;;;;;21.68;67.06;102279.00;7298214;19;154704;-51
2021/08/30 02:50:03;;;;;;;;;;;;;;;21.68;66.98;102284.63;7295560;19;151772;-50
2021/08/30 02:52:32;;;;;;;;;;;;;;;21.69;67.17;102277.03;7294667;19;152675;-50
2021/08/30 02:54:59;;;;;;;;;;;;;;;21.68;66.78;102281.81;7296068;19;153780;-50
2021/08/30 02:57:27;;;;;;;;;;;;;;;21.69;67.09;102274.22;7297362;19;151486;-50
2021/08/30 02:59:55;;;;;;;;;;;;;;;21.69;66.94;102277.88;7294288;19;152624;-50
2021/08/30 03:02:22;;;;;;;;;;;;;;;21.68;66.99;102280.97;7295084;19;152722;-50
2021/08/30 03:04:50;;;;;;;;;;;;;;;21.67;67.45;102276.47;7296200;19;151798;-50
2021/08/30 03:07:17;;;;;;;;;;;;;;;21.67;67.15;102277.31;7294730;19;152915;-50
2021/08/30 03:09:44;;;;;;;;;;;;;;;21.67;67.05;102279.28;7300597;19;151567;-50
2021/08/30 03:12:15;;;;;;;;;;;;;;;21.67;67.05;102285.75;7287298;19;152645;-50
2021/08/30 03:14:43;;;;;;;;;;;;;;;21.67;67.45;102277.31;7287086;19;153287;-50
2021/08/30 03:17:10;;;;;;;;;;;;;;;21.67;67.13;102288.56;7288539;19;152214;-50
2021/08/30 03:19:39;;;;;;;;;;;;;;;21.66;67.15;102280.41;7289701;19;153154;-50
2021/08/30 03:22:08;;;;;;;;;;;;;;;21.66;67.15;102281.28;7284569;19;153826;-50
2021/08/30 03:24:36;;;;;;;;;;;;;;;21.68;67.58;102286.59;7289445;19;151615;-50
2021/08/30 03:27:03;;;;;;;;;;;;;;;21.66;67.43;102286.91;7287378;19;152017;-50
2021/08/30 03:29:30;;;;;;;;;;;;;;;21.68;67.27;102289.41;7293423;19;153803;-50
2021/08/30 03:31:58;;;;;;;;;;;;;;;21.66;67.35;102284.09;7287391;19;154621;-51
2021/08/30 03:34:26;;;;;;;;;;;;;;;21.65;67.72;102282.38;7286781;19;154760;-51
2021/08/30 03:36:53;;;;;;;;;;;;;;;21.66;67.76;102280.41;7288342;19;151813;-50
2021/08/30 03:39:20;;;;;;;;;;;;;;;21.65;68.09;102279.56;7286469;19;154211;-50
2021/08/30 03:41:50;;;;;;;;;;;;;;;21.67;68.05;102282.94;7288413;19;153261;-50
2021/08/30 03:44:18;;;;;;;;;;;;;;;21.67;67.88;102282.94;7286887;19;151503;-51
2021/08/30 03:46:45;;;;;;;;;;;;;;;21.66;68.00;102281.28;7286381;19;153127;-50
2021/08/30 03:49:12;;;;;;;;;;;;;;;21.67;68.09;102290.53;7283960;19;154483;-50
2021/08/30 03:51:40;;;;;;;;;;;;;;;21.67;68.03;102291.38;7295602;19;152642;-50
2021/08/30 03:54:08;;;;;;;;;;;;;;;21.68;68.27;102289.41;7286424;19;153405;-51
2021/08/30 03:56:35;;;;;;;;;;;;;;;21.66;68.06;102286.06;7286170;19;152095;-50
2021/08/30 03:59:02;;;;;;;;;;;;;;;21.67;68.05;102290.53;7286735;19;152644;-50
2021/08/30 04:01:29;;;;;;;;;;;;;;;21.68;67.95;102280.97;7284974;19;152206;-50
2021/08/30 04:03:58;;;;;;;;;;;;;;;21.67;68.13;102288.56;7288104;19;152226;-51
2021/08/30 04:06:26;;;;;;;;;;;;;;;21.71;68.41;102283.22;7286507;19;152636;-50
2021/08/30 04:08:53;;;;;;;;;;;;;;;21.67;67.96;102285.75;7285792;19;153406;-50
2021/08/30 04:11:19;;;;;;;;;;;;;;;21.65;68.23;102282.38;7287733;19;152077;-50
2021/08/30 04:13:47;;;;;;;;;;;;;;;21.64;68.02;102279.84;7291661;19;152629;-51
2021/08/30 04:16:14;;;;;;;;;;;;;;;21.62;67.90;102274.50;7287467;19;151767;-50
2021/08/30 04:18:41;;;;;;;;;;;;;;;21.61;67.71;102267.22;7283424;19;153692;-50
2021/08/30 04:21:08;;;;;;;;;;;;;;;21.60;67.58;102275.91;7287342;19;153761;-50
2021/08/30 04:23:34;;;;;;;;;;;;;;;21.58;67.62;102276.19;7284256;19;152141;-50
2021/08/30 04:26:01;;;;;;;;;;;;;;;21.59;67.38;102268.59;7287016;19;152696;-51
2021/08/30 04:28:28;;;;;;;;;;;;;;;21.60;67.57;102279.59;7284990;19;153977;-50
2021/08/30 04:30:55;;;;;;;;;;;;;;;21.59;66.98;102275.06;7286926;19;151775;-50
2021/08/30 04:33:23;;;;;;;;;;;;;;;21.56;67.29;102275.66;7287064;19;152809;-50
2021/08/30 04:35:50;;;;;;;;;;;;;;;21.56;67.45;102269.19;7291816;19;154184;-50
2021/08/30 04:38:17;;;;;;;;;;;;;;;21.55;67.12;102275.91;7286981;19;152021;-50
2021/08/30 04:40:44;;;;;;;;;;;;;;;21.55;67.12;102278.75;7283763;19;153972;-50
2021/08/30 04:43:12;;;;;;;;;;;;;;;21.55;66.88;102268.34;7286620;19;151992;-51
2021/08/30 04:45:38;;;;;;;;;;;;;;;21.53;67.02;102269.75;7285078;19;152621;-51
2021/08/30 04:48:06;;;;;;;;;;;;;;;21.52;66.73;102274.53;7284642;19;153882;-51
2021/08/30 04:50:33;;;;;;;;;;;;;;;21.54;66.86;102274.22;7283563;19;153092;-50
2021/08/30 04:53:00;;;;;;;;;;;;;;;21.54;66.58;102282.66;7284228;19;155937;-50
2021/08/30 04:55:27;;;;;;;;;;;;;;;21.53;67.10;102275.38;7284643;19;152559;-51
2021/08/30 04:57:54;;;;;;;;;;;;;;;21.53;67.40;102281.00;7295062;19;151925;-50
2021/08/30 05:00:21;;;;;;;;;;;;;;;21.51;67.30;102278.47;7281744;19;153278;-49
2021/08/30 05:02:48;;;;;;;;;;;;;;;21.52;67.42;102279.31;7287380;19;151599;-51
2021/08/30 05:05:16;;;;;;;;;;;;;;;21.52;67.23;102279.31;7285624;19;152862;-50
2021/08/30 05:07:45;;;;;;;;;;;;;;;21.51;67.16;102289.72;7283831;19;153407;-51
2021/08/30 05:10:13;;;;;;;;;;;;;;;21.51;67.44;102284.09;7283943;19;151693;-50
2021/08/30 05:12:40;;;;;;;;;;;;;;;21.50;67.15;102285.22;7287429;19;152602;-51
2021/08/30 05:15:08;;;;;;;;;;;;;;;21.51;67.32;102284.09;7281892;19;153037;-50
2021/08/30 05:17:35;;;;;;;;;;;;;;;21.53;67.64;102287.44;7293953;19;151882;-50
2021/08/30 05:20:03;;;;;;;;;;;;;;;21.52;67.38;102284.94;7281790;19;153316;-50
2021/08/30 05:22:30;;;;;;;;;;;;;;;21.53;67.85;102286.63;7284942;19;151822;-50
2021/08/30 05:24:57;;;;;;;;;;;;;;;21.52;67.34;102294.22;7283875;19;153545;-50
2021/08/30 05:27:24;;;;;;;;;;;;;;;21.52;67.63;102301.81;7284467;19;154040;-50
2021/08/30 05:29:52;;;;;;;;;;;;;;;21.52;67.55;102301.81;7284050;19;151701;-50
2021/08/30 05:32:19;;;;;;;;;;;;;;;21.49;67.54;102296.72;7282058;19;153024;-51
2021/08/30 05:34:46;;;;;;;;;;;;;;;21.50;67.40;102298.41;7282892;19;153305;-50
2021/08/30 05:37:12;;;;;;;;;;;;;;;21.50;67.69;102299.28;7285926;19;151597;-50
2021/08/30 05:39:39;;;;;;;;;;;;;;;21.48;67.41;102295.91;7290016;19;152652;-50
2021/08/30 05:42:09;;;;;;;;;;;;;;;21.49;67.49;102300.38;7283409;19;152043;-50
2021/08/30 05:44:36;;;;;;;;;;;;;;;21.48;67.64;102298.72;7284404;19;152071;-51
2021/08/30 05:47:03;;;;;;;;;;;;;;;21.48;67.60;102295.91;7283735;19;153904;-50
2021/08/30 05:49:30;;;;;;;;;;;;;;;21.49;67.54;102299.53;7281276;19;151667;-51
2021/08/30 05:51:58;;;;;;;;;;;;;;;21.48;67.94;102293.09;7284705;19;152269;-50
2021/08/30 05:54:30;;;;;;;;;;;;;;;21.48;67.54;102286.63;7280707;19;153915;-50
2021/08/30 05:56:57;;;;;;;;;;;;;;;21.50;68.03;102299.28;7285211;19;152543;-50
2021/08/30 05:59:24;;;;;;;;;;;;;;;21.51;67.96;102297.31;7284853;19;152144;-50
2021/08/30 06:01:51;;;;;;;;;;;;;;;21.49;68.01;102291.09;7290559;19;153221;-50
2021/08/30 06:04:18;;;;;;;;;;;;;;;21.48;67.66;102301.53;7285490;19;152838;-50
2021/08/30 06:06:45;;;;;;;;;;;;;;;21.48;67.97;102295.06;7283167;19;152843;-50
2021/08/30 06:09:12;;;;;;;;;;;;;;;21.48;68.16;102292.25;7282525;19;151949;-50
2021/08/30 06:11:39;;;;;;;;;;;;;;;21.47;67.95;102299.00;7284639;19;153313;-50
2021/08/30 06:14:06;;;;;;;;;;;;;;;21.47;68.11;102299.84;7280091;19;153351;-50
2021/08/30 06:16:33;;;;;;;;;;;;;;;21.46;68.19;102284.09;7281298;19;151789;-50
2021/08/30 06:19:00;;;;;;;;;;;;;;;21.48;67.86;102301.53;7284869;19;153305;-50
2021/08/30 06:21:27;;;;;;;;;;;;;;;21.47;68.18;102302.66;7284276;19;153371;-50
2021/08/30 06:23:54;;;;;;;;;;;;;;;21.47;68.14;102305.47;7290525;19;152126;-50
2021/08/30 06:26:21;;;;;;;;;;;;;;;21.46;67.98;102298.16;7281834;19;154044;-50
2021/08/30 06:28:48;;;;;;;;;;;;;;;21.47;68.14;102308.28;7278593;19;151792;-50
2021/08/30 06:31:15;;;;;;;;;;;;;;;21.46;68.02;102305.75;7284616;19;152646;-50
2021/08/30 06:33:42;;;;;;;;;;;;;;;21.45;68.09;102302.09;7281767;19;154000;-49
2021/08/30 06:36:09;;;;;;;;;;;;;;;21.47;67.79;102304.63;7277244;19;152192;-50
2021/08/30 06:38:36;;;;;;;;;;;;;;;21.45;68.28;102304.91;7281922;19;153419;-50
2021/08/30 06:41:03;;;;;;;;;;;;;;;21.45;68.08;102310.53;7279751;19;153649;-50
2021/08/30 06:43:30;;;;;;;;;;;;;;;21.46;67.89;102311.38;7280266;19;151586;-50
2021/08/30 06:45:57;;;;;;;;;;;;;;;21.45;67.92;102307.72;7287618;19;151925;-50
2021/08/30 06:48:24;;;;;;;;;;;;;;;21.45;67.92;102309.66;7287443;19;152338;-50
2021/08/30 06:50:51;;;;;;;;;;;;;;;21.46;67.95;102314.19;7287098;19;152079;-50
2021/08/30 06:53:18;;;;;;;;;;;;;;;21.45;67.99;102307.72;7285869;19;154838;-51
2021/08/30 06:55:45;;;;;;;;;;;;;;;21.44;68.38;102308.81;7285700;19;155236;-50
2021/08/30 06:58:12;;;;;;;;;;;;;;;21.44;67.91;102306.00;7288620;19;152039;-49
2021/08/30 07:00:38;;;;;;;;;;;;;;;21.45;68.36;102306.84;7286868;19;154046;-50
2021/08/30 07:03:07;;;;;;;;;;;;;;;21.45;68.39;102310.53;7286779;19;151894;-50
2021/08/30 07:05:34;;;;;;;;;;;;;;;21.47;68.26;102313.06;7290166;19;152674;-51
2021/08/30 07:08:00;;;;;;;;;;;;;;;21.46;68.34;102312.22;7294303;19;152593;-50
2021/08/30 07:10:27;;;;;;;;;;;;;;;21.46;68.45;102320.66;7285792;19;151993;-50
2021/08/30 07:12:54;;;;;;;;;;;;;;;21.46;67.99;102312.22;7286896;19;153431;-50
2021/08/30 07:15:22;;;;;;;;;;;;;;;21.45;68.23;102313.34;7284837;19;152289;-50
2021/08/30 07:17:49;;;;;;;;;;;;;;;21.47;67.96;102319.53;7289326;19;152674;-50
2021/08/30 07:20:17;;;;;;;;;;;;;;;21.46;68.46;102317.00;7285106;19;153935;-50
2021/08/30 07:22:44;;;;;;;;;;;;;;;21.45;68.32;102320.91;7288334;19;152397;-50
2021/08/30 07:25:11;;;;;;;;;;;;;;;21.44;68.72;102320.06;7286956;19;152752;-50
2021/08/30 07:27:38;;;;;;;;;;;;;;;21.46;68.44;102323.47;7291780;19;152710;-50
2021/08/30 07:30:05;;;;;;;;;;;;;;;21.45;68.12;102318.97;7282030;19;152966;-50
2021/08/30 07:32:32;;;;;;;;;;;;;;;21.45;68.54;102318.97;7286035;19;153799;-50
2021/08/30 07:34:59;;;;;;;;;;;;;;;21.43;68.31;102324.03;7285659;19;152002;-50
2021/08/30 07:37:26;;;;;;;;;;;;;;;21.45;68.22;102323.72;7286565;19;153307;-50
2021/08/30 07:39:53;;;;;;;;;;;;;;;21.44;68.55;102325.69;7284623;19;153220;-51
2021/08/30 07:42:20;;;;;;;;;;;;;;;21.46;68.56;102323.47;7288188;19;152063;-50
2021/08/30 07:44:47;;;;;;;;;;;;;;;21.45;68.31;102333.00;7286787;19;152731;-51
2021/08/30 07:47:14;;;;;;;;;;;;;;;21.45;68.54;102330.19;7285567;19;153147;-50
2021/08/30 07:49:41;;;;;;;;;;;;;;;21.45;68.27;102329.34;7291449;19;151483;-50
2021/08/30 07:52:08;;;;;;;;;;;;;;;21.45;68.78;102332.16;7281097;19;154118;-51
2021/08/30 07:54:35;;;;;;;;;;;;;;;21.47;68.65;102335.56;7286798;19;152149;-50
2021/08/30 07:57:02;;;;;;;;;;;;;;;21.46;68.85;102336.69;7284386;19;153787;-50
2021/08/30 07:59:29;;;;;;;;;;;;;;;21.46;68.58;102336.69;7284878;19;153309;-51
2021/08/30 08:01:56;;;;;;;;;;;;;;;21.46;68.46;102343.16;7284787;19;151673;-50
2021/08/30 08:04:23;;;;;;;;;;;;;;;21.47;68.46;102341.19;7282298;19;153288;-50
2021/08/30 08:06:50;;;;;;;;;;;;;;;21.45;68.69;102346.22;7286089;19;153614;-50
2021/08/30 08:09:18;;;;;;;;;;;;;;;21.45;68.59;102343.41;7281558;19;151774;-50
2021/08/30 08:11:45;;;;;;;;;;;;;;;21.47;68.61;102338.38;7292680;19;152676;-50
2021/08/30 08:14:12;;;;;;;;;;;;;;;21.47;68.76;102353.28;7285737;19;152726;-50
2021/08/30 08:16:39;;;;;;;;;;;;;;;21.48;68.46;102351.31;7287560;19;152910;-50
2021/08/30 08:19:06;;;;;;;;;;;;;;;21.47;68.44;102356.09;7284443;19;153653;-51
2021/08/30 08:21:34;;;;;;;;;;;;;;;21.45;68.53;102352.69;7282450;19;151788;-50
2021/08/30 08:24:03;;;;;;;;;;;;;;;21.49;68.79;102356.63;7285215;19;152212;-51
2021/08/30 08:26:30;;;;;;;;;;;;;;;21.48;68.80;102354.97;7281852;19;152620;-51
2021/08/30 08:28:57;;;;;;;;;;;;;;;21.48;68.75;102357.78;7285437;19;152186;-50
2021/08/30 08:31:24;;;;;;;;;;;;;;;21.49;69.04;102350.16;7281566;19;153145;-50
2021/08/30 08:33:51;;;;;;;;;;;;;;;21.49;68.90;102365.06;7292629;19;153385;-50
2021/08/30 08:36:18;;;;;;;;;;;;;;;21.52;68.69;102364.53;7286223;19;153230;-50
2021/08/30 08:38:45;;;;;;;;;;;;;;;21.54;68.82;102369.84;7285166;19;154076;-50
2021/08/30 08:41:12;;;;;;;;;;;;;;;21.53;69.09;102365.38;7285901;19;153466;-50
2021/08/30 08:43:39;;;;;;;;;;;;;;;21.51;68.82;102373.25;7282650;19;153483;-50
2021/08/30 08:46:06;;;;;;;;;;;;;;;21.50;68.94;102371.53;7283993;19;152255;-51
2021/08/30 08:48:34;;;;;;;;;;;;;;;21.52;68.55;102374.94;7286970;19;151840;-49
2021/08/30 08:51:01;;;;;;;;;;;;;;;21.54;68.81;102381.09;7279827;19;152733;-50
2021/08/30 08:53:28;;;;;;;;;;;;;;;21.58;68.65;102373.78;7279574;19;153500;-50
2021/08/30 08:55:55;;;;;;;;;;;;;;;21.62;68.86;102381.38;7292655;19;152073;-50
2021/08/30 08:58:22;;;;;;;;;;;;;;;21.67;68.91;102381.38;7286092;19;155773;-50
2021/08/30 09:00:52;;;;;;;;;;;;;;;21.70;68.86;102386.47;7283899;19;151816;-50
2021/08/30 09:03:20;;;;;;;;;;;;;;;21.74;69.03;102392.38;7286452;19;152893;-50
2021/08/30 09:05:59;;;;;;;;;;;;;;;21.77;68.89;102390.94;7283639;19;154187;-51
2021/08/30 09:08:29;;;;;;;;;;;;;;;21.80;69.33;102391.25;7283205;19;152192;-50
2021/08/30 09:10:56;;;;;;;;;;;;;;;21.86;69.41;102392.91;7283164;19;154075;-51
2021/08/30 09:13:26;;;;;;;;;;;;;;;21.89;69.67;102389.56;7282615;19;153767;-50
2021/08/30 09:15:54;;;;;;;;;;;;;;;21.95;69.66;102393.22;7284812;19;151752;-51
2021/08/30 09:18:26;;;;;;;;;;;;;;;22.00;69.28;102393.22;7289805;19;152846;-51
2021/08/30 09:20:53;;;;;;;;;;;;;;;22.06;69.07;102397.72;7284169;19;152318;-51
2021/08/30 09:23:20;;;;;;;;;;;;;;;22.11;69.00;102401.38;7282998;19;152379;-51
2021/08/30 09:25:47;;;;;;;;;;;;;;;22.16;68.88;102397.72;7280857;19;153962;-50
2021/08/30 09:28:14;;;;;;;;;;;;;;;22.23;68.93;102389.81;7279555;19;151956;-51
2021/08/30 09:30:41;;;;;;;;;;;;;;;22.30;68.97;102396.00;7278094;19;153416;-50
2021/08/30 09:33:13;;;;;;;;;;;;;;;22.36;68.42;102396.81;7282400;19;154498;-50
2021/08/30 09:35:40;;;;;;;;;;;;;;;22.41;68.71;102405.25;7278194;19;152084;-50
2021/08/30 09:38:16;;;;;;;;;;;;;;;22.45;67.95;102395.09;7286904;19;152650;-51
2021/08/30 09:40:43;;;;;;;;;;;;;;;22.51;68.05;102399.59;7280747;19;152166;-51
2021/08/30 09:43:17;;;;;;;;;;;;;;;22.54;67.85;102405.50;7281282;19;152093;-50
2021/08/30 09:45:44;;;;;;;;;;;;;;;22.59;67.35;102411.09;7277062;19;153946;-50
2021/08/30 09:48:22;;;;;;;;;;;;;;;22.63;67.37;102412.22;7281298;19;151553;-51
2021/08/30 09:50:49;;;;;;;;;;;;;;;22.69;67.29;102403.75;7274513;19;153129;-51
2021/08/30 09:53:16;;;;;;;;;;;;;;;22.72;67.16;102408.81;7275467;19;153586;-50
2021/08/30 09:55:43;;;;;;;;;;;;;;;22.76;66.84;102413.59;7280243;19;151749;-51
2021/08/30 09:58:13;;;;;;;;;;;;;;;22.79;66.43;102403.75;7281423;19;152698;-50
2021/08/30 10:00:42;;;;;;;;;;;;;;;22.82;66.11;102411.63;7289103;19;152793;-50
2021/08/30 10:03:10;;;;;;;;;;;;;;;22.84;66.01;102403.72;7281789;19;152730;-51
2021/08/30 10:05:37;;;;;;;;;;;;;;;;;;7281852;19;154307;-50
2021/08/30 10:08:04;;;;;;;;;;;;;;;22.89;66.19;102406.53;7281644;19;158362;-50
2021/08/30 10:10:32;;;;;;;;;;;;;;;22.92;65.71;102397.47;7280588;19;151765;-51
2021/08/30 10:12:59;;;;;;;;;;;;;;;22.99;65.86;102400.81;7281063;19;153399;-50
2021/08/30 10:15:28;;;;;;;;;;;;;;;22.96;65.50;102401.41;7281677;19;152312;-58
2021/08/30 10:17:55;;;;;;;;;;;;;;;22.94;64.72;102400.88;7283178;19;153095;-51
2021/08/30 10:20:25;;;;;;;;;;;;;;;22.92;63.90;102395.50;7282340;19;153873;-50
2021/08/30 10:22:55;;;;;;;;;;;;;;;22.89;63.08;102400.88;7294392;19;152257;-50
2021/08/30 10:25:22;;;;;;;;;;;;;;;22.92;62.06;102400.31;7285898;19;154093;-50
2021/08/30 10:27:52;;;;;;;;;;;;;;;22.92;61.71;102400.31;7287699;19;151893;-50
2021/08/30 10:30:19;;;;;;;;;;;;;;;22.84;61.97;102401.75;7288454;19;154198;-50
2021/08/30 10:32:51;;;;;;;;;;;;;;;22.84;61.24;102403.72;7288194;19;153875;-51
2021/08/30 10:35:19;;;;;;;;;;;;;;;22.82;61.22;102394.69;7287512;19;152201;-50
2021/08/30 10:37:48;;;;;;;;;;;;;;;22.82;61.02;102404.00;7288437;19;153187;-51
2021/08/30 10:40:16;;;;;;;;;;;;;;;22.77;60.56;102397.53;7287245;19;153979;-50
2021/08/30 10:42:43;;;;;;;;;;;;;;;22.74;60.67;102398.13;7290389;19;152992;-50
2021/08/30 10:45:11;;;;;;;;;;;;;;;22.68;60.33;102396.41;7292310;19;153381;-50
2021/08/30 10:47:38;;;;;;;;;;;;;;;22.66;60.25;102391.09;7285875;19;151975;-50
2021/08/30 10:50:06;;;;;;;;;;;;;;;22.65;60.42;102399.81;7283126;19;151819;-50
2021/08/30 10:52:36;;;;;;;;;;;;;;;22.69;60.35;102398.13;7270017;19;152749;-50
2021/08/30 10:55:14;;;;;;;;;;;;;;;22.65;60.13;102402.63;7279125;19;151862;-50
2021/08/30 10:57:41;;;;;;;;;;;;;;;22.57;60.63;102404.94;7287916;19;153759;-50
2021/08/30 11:00:09;;;;;;;;;;;;;;;22.59;60.62;102405.47;7285229;19;154228;-50
2021/08/30 11:02:39;;;;;;;;;;;;;;;22.54;60.86;102408.31;7289541;19;152259;-51
2021/08/30 11:05:07;;;;;;;;;;;;;;;22.56;60.85;102410.84;7285819;19;153597;-50
2021/08/30 11:07:35;;;;;;;;;;;;;;;22.54;60.82;102416.75;7295877;19;154106;-51
2021/08/30 11:10:03;;;;;;;;;;;;;;;22.53;60.72;102406.63;7285760;19;153316;-50
2021/08/30 11:12:30;;;;;;;;;;;;;;;22.53;60.13;102403.78;7284331;19;154301;-50
2021/08/30 11:14:58;;;;;;;;;;;;;;;22.50;60.72;102411.97;7285285;19;152077;-50
2021/08/30 11:17:26;;;;;;;;;;;;;;;22.51;60.33;102408.03;7288139;19;151985;-50
2021/08/30 11:19:54;;;;;;;;;;;;;;;22.47;60.19;102406.94;7286988;19;153298;-50
2021/08/30 11:22:22;;;;;;;;;;;;;;;22.46;60.25;102402.41;7285936;19;151781;-50
2021/08/30 11:24:49;;;;;;;;;;;;;;;22.42;60.63;102404.13;7288056;19;152646;-50
2021/08/30 11:27:20;;;;;;;;;;;;;;;22.39;60.64;102401.88;7284191;19;153582;-51
2021/08/30 11:29:48;;;;;;;;;;;;;;;22.41;60.70;102399.63;7293387;19;151691;-50
2021/08/30 11:32:16;;;;;;;;;;;;;;;22.38;60.49;102401.03;7280422;19;152684;-51
2021/08/30 11:34:43;;;;;;;;;;;;;;;22.36;60.46;102400.47;7284360;19;152188;-51
2021/08/30 11:37:18;;;;;;;;;;;;;;;22.39;60.44;102407.53;7285614;19;152087;-51
2021/08/30 11:39:47;;;;;;;;;;;;;;;22.32;60.99;102407.81;7284125;19;154392;-50
2021/08/30 11:42:16;;;;;;;;;;;;;;;22.31;61.03;102414.56;7285611;19;152107;-51
2021/08/30 11:44:43;;;;;;;;;;;;;;;22.33;60.88;102409.50;7283298;19;152621;-51
2021/08/30 11:47:11;;;;;;;;;;;;;;;22.31;60.49;102400.47;7283624;19;154105;-50
2021/08/30 11:49:41;;;;;;;;;;;;;;;22.29;60.91;102413.16;7288183;19;152181;-51
2021/08/30 11:52:09;;;;;;;;;;;;;;;22.26;61.52;102402.50;7273490;19;154844;-51
2021/08/30 11:54:37;;;;;;;;;;;;;;;22.24;61.90;102404.72;7270731;19;152351;-51
2021/08/30 11:57:08;;;;;;;;;;;;;;;22.26;61.73;102408.94;7275667;19;153201;-50
2021/08/30 11:59:36;;;;;;;;;;;;;;;22.27;62.09;102415.41;7280877;19;152962;-50
2021/08/30 12:02:04;;;;;;;;;;;;;;;22.27;62.12;102412.59;7280159;19;152233;-51
2021/08/30 12:04:33;;;;;;;;;;;;;;;22.25;62.36;102414.88;7282273;19;153238;-50
2021/08/30 12:07:02;;;;;;;;;;;;;;;22.24;62.70;102416.00;7280629;19;153615;-50
2021/08/30 12:09:32;;;;;;;;;;;;;;;22.24;62.39;102410.38;7287996;19;152158;-50
2021/08/30 12:11:58;;;;;;;;;;;;;;;22.21;62.64;102410.94;7289582;19;152486;-50
2021/08/30 12:14:25;;;;;;;;;;;;;;;22.20;62.81;102406.44;7283333;19;151796;-50
2021/08/30 12:16:55;;;;;;;;;;;;;;;22.19;62.92;102402.78;7285662;19;152422;-51
2021/08/30 12:19:24;;;;;;;;;;;;;;;22.17;62.88;102411.50;7283952;19;152589;-51
2021/08/30 12:21:51;;;;;;;;;;;;;;;22.16;62.89;102403.34;7284841;19;152077;-51
2021/08/30 12:24:19;;;;;;;;;;;;;;;22.16;63.13;102407.00;7285609;19;153505;-51
2021/08/30 12:26:48;;;;;;;;;;;;;;;22.15;62.91;102416.56;7284101;19;153946;-51
2021/08/30 12:29:17;;;;;;;;;;;;;;;22.16;63.43;102411.78;7284352;19;152001;-51
2021/08/30 12:31:50;;;;;;;;;;;;;;;22.16;63.50;102414.59;7282877;19;152697;-51
2021/08/30 12:34:20;;;;;;;;;;;;;;;22.16;63.44;102411.78;7290098;19;154406;-51